createdAt,value
2023-12-19T00:00:18.105Z,100360.00
2023-12-19T00:01:18.131Z,100369.00
2023-12-19T00:02:18.108Z,100378.00
2023-12-19T00:03:18.172Z,100380.00
2023-12-19T00:04:18.107Z,100385.00
2023-12-19T00:05:18.111Z,100390.00
2023-12-19T00:06:18.130Z,100383.00
2023-12-19T00:07:18.136Z,100387.00
2023-12-19T00:08:18.127Z,100392.00
2023-12-19T00:09:18.168Z,100392.00
2023-12-19T00:10:18.136Z,100394.00
2023-12-19T00:11:18.140Z,100395.00
2023-12-19T00:12:18.245Z,100388.00
2023-12-19T00:13:18.177Z,100379.00
2023-12-19T00:14:18.170Z,100376.00
2023-12-19T00:15:18.237Z,100379.00
2023-12-19T00:16:18.159Z,100386.00
2023-12-19T00:17:18.177Z,100386.00
2023-12-19T00:18:18.442Z,100379.00
2023-12-19T00:19:18.264Z,100378.00
2023-12-19T00:20:18.216Z,100377.00
2023-12-19T00:21:18.216Z,100385.00
2023-12-19T00:22:18.237Z,100384.00
2023-12-19T00:23:18.245Z,100393.00
2023-12-19T00:24:18.304Z,100382.00
2023-12-19T00:25:18.270Z,100377.00
2023-12-19T00:26:18.275Z,100375.00
2023-12-19T00:27:18.293Z,100380.00
2023-12-19T00:28:18.291Z,100379.00
2023-12-19T00:29:18.287Z,100379.00
2023-12-19T00:30:18.309Z,100378.00
2023-12-19T00:31:18.364Z,100377.00
2023-12-19T00:32:18.285Z,100366.00
2023-12-19T00:33:18.426Z,100372.00
2023-12-19T00:34:18.431Z,100370.00
2023-12-19T00:35:18.346Z,100372.00
2023-12-19T00:36:18.375Z,100369.00
2023-12-19T00:37:18.345Z,100359.00
2023-12-19T00:38:18.352Z,100353.00
2023-12-19T00:39:18.415Z,100359.00
2023-12-19T00:40:18.358Z,100359.00
2023-12-19T00:41:18.425Z,100361.00
2023-12-19T00:42:18.398Z,100357.00
2023-12-19T00:43:18.380Z,100353.00
2023-12-19T00:44:18.365Z,100346.00
2023-12-19T00:45:18.456Z,100346.00
2023-12-19T00:46:18.391Z,100344.00
2023-12-19T00:47:18.403Z,100335.00
2023-12-19T00:48:18.538Z,100335.00
2023-12-19T00:49:18.485Z,100338.00
2023-12-19T00:50:18.422Z,100342.00
2023-12-19T00:51:18.559Z,100347.00
2023-12-19T00:52:18.442Z,100349.00
2023-12-19T00:53:18.462Z,100346.00
2023-12-19T00:54:18.489Z,100348.00
2023-12-19T00:55:18.458Z,100343.00
2023-12-19T00:56:18.467Z,100343.00
2023-12-19T00:57:18.562Z,100349.00
2023-12-19T00:58:18.464Z,100348.00
2023-12-19T00:59:18.478Z,100351.00
2023-12-19T01:00:18.534Z,100351.00
2023-12-19T01:01:18.626Z,100353.00
2023-12-19T01:02:18.516Z,100355.00
2023-12-19T01:03:18.576Z,100346.00
2023-12-19T01:04:18.556Z,100350.00
2023-12-19T01:05:18.540Z,100348.00
2023-12-19T01:06:18.565Z,100346.00
2023-12-19T01:07:18.531Z,100340.00
2023-12-19T01:08:18.581Z,100336.00
2023-12-19T01:09:18.593Z,100327.00
2023-12-19T01:10:18.608Z,100328.00
2023-12-19T01:11:18.548Z,100321.00
2023-12-19T01:12:18.650Z,100315.00
2023-12-19T01:13:18.567Z,100313.00
2023-12-19T01:14:18.569Z,100306.00
2023-12-19T01:15:18.644Z,100308.00
2023-12-19T01:16:18.588Z,100307.00
2023-12-19T01:17:18.593Z,100308.00
2023-12-19T01:18:18.793Z,100303.00
2023-12-19T01:19:18.697Z,100307.00
2023-12-19T01:20:18.613Z,100314.00
2023-12-19T01:21:18.658Z,100312.00
2023-12-19T01:22:18.625Z,100318.00
2023-12-19T01:23:18.631Z,100307.00
2023-12-19T01:24:18.683Z,100304.00
2023-12-19T01:25:18.683Z,100305.00
2023-12-19T01:26:24.183Z,100310.00
2023-12-19T01:27:18.708Z,100310.00
2023-12-19T01:28:18.701Z,100315.00
2023-12-19T01:29:18.687Z,100319.00
2023-12-19T01:30:18.749Z,100317.00
2023-12-19T01:31:18.842Z,100320.00
2023-12-19T01:32:18.744Z,100317.00
2023-12-19T01:33:19.000Z,100315.00
2023-12-19T01:34:18.863Z,100315.00
2023-12-19T01:35:18.786Z,100317.00
2023-12-19T01:36:18.872Z,100312.00
2023-12-19T01:37:18.864Z,100320.00
2023-12-19T01:38:18.841Z,100321.00
2023-12-19T01:39:18.883Z,100314.00
2023-12-19T01:40:18.903Z,100323.00
2023-12-19T01:41:18.871Z,100329.00
2023-12-19T01:42:18.940Z,100335.00
2023-12-19T01:43:18.899Z,100340.00
2023-12-19T01:44:18.891Z,100341.00
2023-12-19T01:45:18.971Z,100347.00
2023-12-19T01:46:18.939Z,100348.00
2023-12-19T01:47:18.914Z,100353.00
2023-12-19T01:48:19.058Z,100351.00
2023-12-19T01:49:19.078Z,100346.00
2023-12-19T01:50:18.982Z,100346.00
2023-12-19T01:52:18.975Z,100341.00
2023-12-19T01:53:19.004Z,100336.00
2023-12-19T01:54:19.018Z,100335.00
2023-12-19T01:55:19.013Z,100331.00
2023-12-19T01:56:19.060Z,100327.00
2023-12-19T01:57:19.102Z,100324.00
2023-12-19T01:58:19.043Z,100328.00
2023-12-19T01:59:19.049Z,100328.00
2023-12-19T02:00:19.178Z,100329.00
2023-12-19T02:01:19.140Z,100330.00
2023-12-19T02:02:19.047Z,100326.00
2023-12-19T02:03:19.285Z,100324.00
2023-12-19T02:04:19.181Z,100325.00
2023-12-19T02:05:19.123Z,100325.00
2023-12-19T02:06:19.141Z,100330.00
2023-12-19T02:07:19.121Z,100327.00
2023-12-19T02:08:19.127Z,100329.00
2023-12-19T02:09:19.278Z,100325.00
2023-12-19T02:10:19.179Z,100320.00
2023-12-19T02:11:19.178Z,100318.00
2023-12-19T02:12:19.224Z,100316.00
2023-12-19T02:13:19.205Z,100321.00
2023-12-19T02:14:19.200Z,100320.00
2023-12-19T02:15:19.339Z,100316.00
2023-12-19T02:16:19.217Z,100319.00
2023-12-19T02:17:19.203Z,100315.00
2023-12-19T02:18:19.613Z,100316.00
2023-12-19T02:19:19.256Z,100315.00
2023-12-19T02:20:19.220Z,100323.00
2023-12-19T02:21:19.309Z,100322.00
2023-12-19T02:22:19.244Z,100324.00
2023-12-19T02:23:19.247Z,100323.00
2023-12-19T02:24:19.336Z,100315.00
2023-12-19T02:25:19.280Z,100311.00
2023-12-19T02:26:19.258Z,100310.00
2023-12-19T02:27:19.262Z,100308.00
2023-12-19T02:28:19.286Z,100305.00
2023-12-19T02:29:19.288Z,100297.00
2023-12-19T02:30:19.358Z,100290.00
2023-12-19T02:31:19.392Z,100296.00
2023-12-19T02:32:19.313Z,100297.00
2023-12-19T02:33:19.366Z,100296.00
2023-12-19T02:34:19.426Z,100293.00
2023-12-19T02:35:19.350Z,100287.00
2023-12-19T02:36:19.445Z,100280.00
2023-12-19T02:37:19.362Z,100277.00
2023-12-19T02:38:19.372Z,100270.00
2023-12-19T02:39:19.378Z,100270.00
2023-12-19T02:40:19.371Z,100271.00
2023-12-19T02:41:19.380Z,100266.00
2023-12-19T02:42:19.478Z,100261.00
2023-12-19T02:43:19.419Z,100259.00
2023-12-19T02:44:19.455Z,100254.00
2023-12-19T02:45:19.631Z,100253.00
2023-12-19T02:46:19.493Z,100251.00
2023-12-19T02:47:19.493Z,100250.00
2023-12-19T02:48:19.590Z,100254.00
2023-12-19T02:49:19.644Z,100242.00
2023-12-19T02:50:19.511Z,100245.00
2023-12-19T02:51:19.509Z,100241.00
2023-12-19T02:52:19.511Z,100245.00
2023-12-19T02:53:19.536Z,100250.00
2023-12-19T02:54:19.568Z,100251.00
2023-12-19T02:55:19.572Z,100258.00
2023-12-19T02:56:19.584Z,100256.00
2023-12-19T02:57:19.740Z,100255.00
2023-12-19T02:58:19.595Z,100254.00
2023-12-19T03:00:19.772Z,100263.00
2023-12-19T03:01:19.688Z,100270.00
2023-12-19T03:02:19.601Z,100271.00
2023-12-19T03:03:19.677Z,100280.00
2023-12-19T03:04:19.796Z,100280.00
2023-12-19T03:05:19.667Z,100274.00
2023-12-19T03:06:19.663Z,100288.00
2023-12-19T03:07:19.674Z,100292.00
2023-12-19T03:08:19.644Z,100295.00
2023-12-19T03:09:19.650Z,100299.00
2023-12-19T03:10:19.653Z,100296.00
2023-12-19T03:11:19.686Z,100294.00
2023-12-19T03:12:19.679Z,100286.00
2023-12-19T03:13:19.659Z,100281.00
2023-12-19T03:14:19.691Z,100284.00
2023-12-19T03:15:19.711Z,100279.00
2023-12-19T03:16:19.725Z,100283.00
2023-12-19T03:17:19.720Z,100278.00
2023-12-19T03:18:19.796Z,100276.00
2023-12-19T03:19:19.927Z,100275.00
2023-12-19T03:20:19.764Z,100266.00
2023-12-19T03:21:19.821Z,100265.00
2023-12-19T03:22:19.816Z,100266.00
2023-12-19T03:23:19.849Z,100274.00
2023-12-19T03:24:19.839Z,100278.00
2023-12-19T03:25:19.842Z,100271.00
2023-12-19T03:26:19.851Z,100269.00
2023-12-19T03:27:19.879Z,100272.00
2023-12-19T03:28:19.876Z,100270.00
2023-12-19T03:29:19.902Z,100273.00
2023-12-19T03:30:19.954Z,100272.00
2023-12-19T03:31:20.027Z,100267.00
2023-12-19T03:32:19.927Z,100262.00
2023-12-19T03:33:19.953Z,100253.00
2023-12-19T03:34:20.022Z,100246.00
2023-12-19T03:35:19.923Z,100241.00
2023-12-19T03:36:19.947Z,100241.00
2023-12-19T03:37:19.940Z,100239.00
2023-12-19T03:38:19.941Z,100237.00
2023-12-19T03:39:19.947Z,100240.00
2023-12-19T03:40:19.955Z,100238.00
2023-12-19T03:41:19.976Z,100233.00
2023-12-19T03:42:19.987Z,100222.00
2023-12-19T03:43:20.065Z,100222.00
2023-12-19T03:44:19.997Z,100213.00
2023-12-19T03:45:20.017Z,100212.00
2023-12-19T03:46:20.001Z,100214.00
2023-12-19T03:47:20.018Z,100214.00
2023-12-19T03:48:20.173Z,100219.00
2023-12-19T03:49:20.150Z,100221.00
2023-12-19T03:50:20.036Z,100213.00
2023-12-19T03:51:20.038Z,100208.00
2023-12-19T03:52:20.033Z,100210.00
2023-12-19T03:53:20.090Z,100218.00
2023-12-19T03:54:20.063Z,100221.00
2023-12-19T03:55:20.077Z,100214.00
2023-12-19T03:56:20.079Z,100212.00
2023-12-19T03:57:20.083Z,100209.00
2023-12-19T03:58:20.097Z,100216.00
2023-12-19T03:59:20.099Z,100220.00
2023-12-19T04:00:20.096Z,100222.00
2023-12-19T04:01:20.186Z,100219.00
2023-12-19T04:02:20.111Z,100216.00
2023-12-19T04:03:20.111Z,100210.00
2023-12-19T04:04:20.267Z,100210.00
2023-12-19T04:05:20.205Z,100208.00
2023-12-19T04:06:20.156Z,100209.00
2023-12-19T04:07:20.158Z,100203.00
2023-12-19T04:08:20.160Z,100199.00
2023-12-19T04:09:20.176Z,100201.00
2023-12-19T04:10:20.177Z,100201.00
2023-12-19T04:11:20.186Z,100200.00
2023-12-19T04:12:20.198Z,100206.00
2023-12-19T04:13:20.188Z,100204.00
2023-12-19T04:14:20.190Z,100208.00
2023-12-19T04:15:20.216Z,100207.00
2023-12-19T04:16:20.215Z,100211.00
2023-12-19T04:17:20.277Z,100217.00
2023-12-19T04:18:20.228Z,100218.00
2023-12-19T04:19:20.318Z,100223.00
2023-12-19T04:20:20.245Z,100220.00
2023-12-19T04:21:20.335Z,100222.00
2023-12-19T04:22:20.263Z,100213.00
2023-12-19T04:23:20.251Z,100207.00
2023-12-19T04:24:20.252Z,100199.00
2023-12-19T04:25:20.267Z,100195.00
2023-12-19T04:26:20.294Z,100200.00
2023-12-19T04:27:20.283Z,100203.00
2023-12-19T04:28:20.290Z,100204.00
2023-12-19T04:29:20.301Z,100199.00
2023-12-19T04:30:20.334Z,100201.00
2023-12-19T04:31:20.394Z,100198.00
2023-12-19T04:32:20.342Z,100195.00
2023-12-19T04:33:20.523Z,100191.00
2023-12-19T04:34:20.526Z,100189.00
2023-12-19T04:35:20.421Z,100189.00
2023-12-19T04:36:20.464Z,100192.00
2023-12-19T04:37:20.439Z,100184.00
2023-12-19T04:38:20.465Z,100183.00
2023-12-19T04:39:20.495Z,100186.00
2023-12-19T04:40:20.483Z,100185.00
2023-12-19T04:41:20.479Z,100177.00
2023-12-19T04:42:20.490Z,100179.00
2023-12-19T04:43:20.491Z,100178.00
2023-12-19T04:44:20.485Z,100175.00
2023-12-19T04:45:20.491Z,100173.00
2023-12-19T04:46:20.501Z,100167.00
2023-12-19T04:47:20.527Z,100163.00
2023-12-19T04:48:20.529Z,100162.00
2023-12-19T04:49:20.650Z,100164.00
2023-12-19T04:50:20.553Z,100165.00
2023-12-19T04:51:20.598Z,100165.00
2023-12-19T04:52:20.595Z,100160.00
2023-12-19T04:53:20.562Z,100165.00
2023-12-19T04:54:20.577Z,100166.00
2023-12-19T04:55:20.583Z,100162.00
2023-12-19T04:56:20.585Z,100166.00
2023-12-19T04:57:20.595Z,100161.00
2023-12-19T04:58:20.607Z,100160.00
2023-12-19T04:59:20.718Z,100161.00
2023-12-19T05:00:20.611Z,100160.00
2023-12-19T05:01:20.719Z,100159.00
2023-12-19T05:02:20.648Z,100165.00
2023-12-19T05:03:20.739Z,100163.00
2023-12-19T05:04:20.814Z,100159.00
2023-12-19T05:06:46.672Z,100165.00
2023-12-19T05:07:46.624Z,100165.00
2023-12-19T05:08:46.723Z,100162.00
2023-12-19T05:09:46.719Z,100161.00
2023-12-19T05:10:46.681Z,100160.00
2023-12-19T05:11:46.713Z,100160.00
2023-12-19T05:12:47.014Z,100163.00
2023-12-19T05:13:46.748Z,100167.00
2023-12-19T05:14:46.747Z,100167.00
2023-12-19T05:15:46.754Z,100167.00
2023-12-19T05:16:46.756Z,100166.00
2023-12-19T05:17:48.537Z,100166.00
2023-12-19T05:18:46.907Z,100160.00
2023-12-19T05:19:53.265Z,100165.00
2023-12-19T05:20:46.801Z,100163.00
2023-12-19T05:21:46.893Z,100161.00
2023-12-19T05:22:47.071Z,100159.00
2023-12-19T05:23:46.938Z,100166.00
2023-12-19T05:24:46.917Z,100161.00
2023-12-19T05:25:46.906Z,100163.00
2023-12-19T05:26:46.887Z,100162.00
2023-12-19T05:27:46.930Z,100158.00
2023-12-19T05:28:46.934Z,100157.00
2023-12-19T05:29:46.996Z,100162.00
2023-12-19T05:30:46.997Z,100158.00
2023-12-19T05:31:46.971Z,100157.00
2023-12-19T05:32:47.337Z,100155.00
2023-12-19T05:33:46.975Z,100152.00
2023-12-19T05:34:47.051Z,100155.00
2023-12-19T05:35:47.063Z,100160.00
2023-12-19T05:36:47.071Z,100152.00
2023-12-19T05:37:47.000Z,100150.00
2023-12-19T05:38:47.004Z,100153.00
2023-12-19T05:39:47.040Z,100158.00
2023-12-19T05:40:47.004Z,100163.00
2023-12-19T05:41:47.033Z,100171.00
2023-12-19T05:42:47.891Z,100168.00
2023-12-19T05:43:47.033Z,100169.00
2023-12-19T05:44:47.033Z,100169.00
2023-12-19T05:45:47.108Z,100166.00
2023-12-19T05:46:47.047Z,100166.00
2023-12-19T05:47:47.109Z,100168.00
2023-12-19T05:48:47.363Z,100167.00
2023-12-19T05:49:47.126Z,100161.00
2023-12-19T05:50:47.108Z,100161.00
2023-12-19T05:51:47.124Z,100159.00
2023-12-19T05:52:47.326Z,100163.00
2023-12-19T05:53:47.122Z,100160.00
2023-12-19T05:54:47.145Z,100163.00
2023-12-19T05:55:47.133Z,100157.00
2023-12-19T05:56:47.113Z,100158.00
2023-12-19T05:57:47.159Z,100160.00
2023-12-19T05:58:47.139Z,100155.00
2023-12-19T05:59:47.142Z,100153.00
2023-12-19T06:00:47.221Z,100146.00
2023-12-19T06:01:47.198Z,100154.00
2023-12-19T06:02:47.165Z,100156.00
2023-12-19T06:03:47.196Z,100157.00
2023-12-19T06:04:47.240Z,100159.00
2023-12-19T06:05:47.277Z,100157.00
2023-12-19T06:06:47.258Z,100159.00
2023-12-19T06:07:47.203Z,100158.00
2023-12-19T06:08:47.219Z,100159.00
2023-12-19T06:09:47.267Z,100158.00
2023-12-19T06:10:47.196Z,100153.00
2023-12-19T06:11:47.256Z,100154.00
2023-12-19T06:12:47.571Z,100156.00
2023-12-19T06:13:47.385Z,100163.00
2023-12-19T06:14:47.286Z,100157.00
2023-12-19T06:15:47.293Z,100166.00
2023-12-19T06:16:47.280Z,100165.00
2023-12-19T06:17:47.344Z,100172.00
2023-12-19T06:18:48.259Z,100169.00
2023-12-19T06:19:47.478Z,100165.00
2023-12-19T06:20:47.323Z,100166.00
2023-12-19T06:21:47.426Z,100171.00
2023-12-19T06:23:47.401Z,100171.00
2023-12-19T06:24:47.542Z,100164.00
2023-12-19T06:25:47.440Z,100170.00
2023-12-19T06:26:47.480Z,100175.00
2023-12-19T06:27:47.553Z,100173.00
2023-12-19T06:28:47.484Z,100177.00
2023-12-19T06:29:47.490Z,100180.00
2023-12-19T06:30:47.574Z,100179.00
2023-12-19T06:31:47.621Z,100187.00
2023-12-19T06:33:47.587Z,100192.00
2023-12-19T06:34:47.654Z,100193.00
2023-12-19T06:35:47.501Z,100197.00
2023-12-19T06:36:47.623Z,100204.00
2023-12-19T06:38:47.560Z,100201.00
2023-12-19T06:39:47.727Z,100198.00
2023-12-19T06:40:47.580Z,100194.00
2023-12-19T06:41:47.643Z,100196.00
2023-12-19T06:42:47.961Z,100194.00
2023-12-19T06:43:47.818Z,100189.00
2023-12-19T06:44:47.580Z,100207.00
2023-12-19T06:45:47.625Z,100191.00
2023-12-19T06:46:47.864Z,100188.00
2023-12-19T06:47:48.016Z,100190.00
2023-12-19T06:48:47.750Z,100192.00
2023-12-19T06:49:47.848Z,100189.00
2023-12-19T06:50:47.786Z,100190.00
2023-12-19T06:51:47.836Z,100185.00
2023-12-19T06:52:47.944Z,100182.00
2023-12-19T06:53:47.813Z,100179.00
2023-12-19T06:54:47.835Z,100188.00
2023-12-19T06:55:47.805Z,100188.00
2023-12-19T06:56:47.872Z,100186.00
2023-12-19T06:57:47.946Z,100175.00
2023-12-19T06:58:48.711Z,100190.00
2023-12-19T07:00:47.969Z,100183.00
2023-12-19T07:01:47.812Z,100176.00
2023-12-19T07:02:47.739Z,100181.00
2023-12-19T07:03:47.967Z,100182.00
2023-12-19T07:04:48.061Z,100176.00
2023-12-19T07:05:47.762Z,100188.00
2023-12-19T07:06:47.977Z,100181.00
2023-12-19T07:07:47.800Z,100191.00
2023-12-19T07:09:47.837Z,100182.00
2023-12-19T07:10:47.778Z,100186.00
2023-12-19T07:11:47.788Z,100198.00
2023-12-19T07:12:47.947Z,100193.00
2023-12-19T07:14:47.891Z,100194.00
2023-12-19T07:16:47.937Z,100193.00
2023-12-19T07:17:47.877Z,100191.00
2023-12-19T07:18:47.967Z,100190.00
2023-12-19T07:19:47.909Z,100182.00
2023-12-19T07:20:47.932Z,100182.00
2023-12-19T07:21:47.983Z,100177.00
2023-12-19T07:22:47.927Z,100174.00
2023-12-19T07:23:48.062Z,100171.00
2023-12-19T07:24:48.054Z,100170.00
2023-12-19T07:25:47.962Z,100165.00
2023-12-19T07:26:48.380Z,100162.00
2023-12-19T07:27:47.967Z,100164.00
2023-12-19T07:28:47.905Z,100160.00
2023-12-19T07:29:47.919Z,100158.00
2023-12-19T07:30:48.081Z,100147.00
2023-12-19T07:31:48.294Z,100140.00
2023-12-19T07:32:48.460Z,100134.00
2023-12-19T07:33:48.306Z,100132.00
2023-12-19T07:34:48.071Z,100132.00
2023-12-19T07:35:48.176Z,100132.00
2023-12-19T07:36:48.212Z,100132.00
2023-12-19T07:37:48.092Z,100126.00
2023-12-19T07:38:48.090Z,100123.00
2023-12-19T07:39:48.161Z,100122.00
2023-12-19T07:40:48.093Z,100122.00
2023-12-19T07:41:48.216Z,100127.00
2023-12-19T07:42:48.249Z,100121.00
2023-12-19T07:43:48.155Z,100116.00
2023-12-19T07:44:48.113Z,100111.00
2023-12-19T07:46:48.364Z,100117.00
2023-12-19T07:47:48.223Z,100120.00
2023-12-19T07:48:48.245Z,100120.00
2023-12-19T07:50:48.173Z,100120.00
2023-12-19T07:51:48.291Z,100116.00
2023-12-19T07:52:48.196Z,100118.00
2023-12-19T07:53:48.314Z,100128.00
2023-12-19T07:54:48.322Z,100131.00
2023-12-19T07:55:48.306Z,100136.00
2023-12-19T07:57:49.122Z,100139.00
2023-12-19T07:58:48.291Z,100140.00
2023-12-19T07:59:48.244Z,100133.00
2023-12-19T08:00:48.732Z,100136.00
2023-12-19T08:01:48.397Z,100136.00
2023-12-19T08:02:48.427Z,100138.00
2023-12-19T08:03:48.399Z,100142.00
2023-12-19T08:04:48.493Z,100143.00
2023-12-19T08:05:48.641Z,100145.00
2023-12-19T08:06:48.494Z,100150.00
2023-12-19T08:07:48.404Z,100142.00
2023-12-19T08:08:48.405Z,100137.00
2023-12-19T08:09:48.597Z,100139.00
2023-12-19T08:10:48.415Z,100138.00
2023-12-19T08:11:48.928Z,100130.00
2023-12-19T08:12:48.569Z,100124.00
2023-12-19T08:13:48.429Z,100136.00
2023-12-19T08:14:48.506Z,100133.00
2023-12-19T08:15:48.487Z,100131.00
2023-12-19T08:16:48.566Z,100136.00
2023-12-19T08:18:48.582Z,100126.00
2023-12-19T08:19:48.624Z,100131.00
2023-12-19T08:20:48.551Z,100118.00
2023-12-19T08:21:48.525Z,100121.00
2023-12-19T08:22:48.531Z,100118.00
2023-12-19T08:23:48.509Z,100124.00
2023-12-19T08:24:48.631Z,100127.00
2023-12-19T08:25:48.528Z,100119.00
2023-12-19T08:26:48.514Z,100126.00
2023-12-19T08:27:48.594Z,100127.00
2023-12-19T08:28:48.626Z,100134.00
2023-12-19T08:29:48.727Z,100127.00
2023-12-19T08:30:48.657Z,100125.00
2023-12-19T08:31:48.665Z,100129.00
2023-12-19T08:32:49.093Z,100125.00
2023-12-19T08:33:48.700Z,100124.00
2023-12-19T08:34:48.776Z,100118.00
2023-12-19T08:35:48.792Z,100127.00
2023-12-19T08:36:48.907Z,100124.00
2023-12-19T08:37:48.713Z,100123.00
2023-12-19T08:38:48.748Z,100122.00
2023-12-19T08:39:48.800Z,100121.00
2023-12-19T08:40:48.780Z,100128.00
2023-12-19T08:41:48.864Z,100120.00
2023-12-19T08:42:48.843Z,100121.00
2023-12-19T08:43:48.829Z,100109.00
2023-12-19T08:44:48.839Z,100106.00
2023-12-19T08:45:48.983Z,100104.00
2023-12-19T08:46:48.871Z,100095.00
2023-12-19T08:47:48.978Z,100099.00
2023-12-19T08:49:49.053Z,100084.00
2023-12-19T08:50:48.845Z,100085.00
2023-12-19T08:51:49.055Z,100090.00
2023-12-19T08:52:49.168Z,100091.00
2023-12-19T08:53:48.933Z,100080.00
2023-12-19T08:54:49.010Z,100085.00
2023-12-19T08:55:48.982Z,100086.00
2023-12-19T08:56:49.012Z,100087.00
2023-12-19T08:57:48.982Z,100089.00
2023-12-19T08:58:48.972Z,100086.00
2023-12-19T08:59:49.038Z,100088.00
2023-12-19T09:00:49.143Z,100083.00
2023-12-19T09:01:49.113Z,100081.00
2023-12-19T09:02:49.124Z,100074.00
2023-12-19T09:03:49.143Z,100078.00
2023-12-19T09:04:50.393Z,100078.00
2023-12-19T09:05:49.102Z,100076.00
2023-12-19T09:07:49.119Z,100083.00
2023-12-19T09:08:49.090Z,100087.00
2023-12-19T09:09:49.280Z,100090.00
2023-12-19T09:10:49.124Z,100092.00
2023-12-19T09:11:49.139Z,100093.00
2023-12-19T09:12:49.622Z,100098.00
2023-12-19T09:13:49.127Z,100104.00
2023-12-19T09:14:49.159Z,100105.00
2023-12-19T09:15:49.184Z,100099.00
2023-12-19T09:16:49.190Z,100096.00
2023-12-19T09:17:49.228Z,100093.00
2023-12-19T09:18:49.280Z,100094.00
2023-12-19T09:19:49.306Z,100088.00
2023-12-19T09:20:49.239Z,100082.00
2023-12-19T09:21:49.248Z,100081.00
2023-12-19T09:22:49.231Z,100079.00
2023-12-19T09:23:49.248Z,100074.00
2023-12-19T09:24:49.297Z,100081.00
2023-12-19T09:25:49.239Z,100090.00
2023-12-19T09:26:49.256Z,100093.00
2023-12-19T09:27:49.302Z,100091.00
2023-12-19T09:28:52.135Z,100091.00
2023-12-19T09:29:49.789Z,100090.00
2023-12-19T09:30:49.906Z,100085.00
2023-12-19T09:31:49.412Z,100080.00
2023-12-19T09:32:49.549Z,100077.00
2023-12-19T09:33:49.638Z,100069.00
2023-12-19T09:34:49.542Z,100063.00
2023-12-19T09:35:49.330Z,100058.00
2023-12-19T09:36:56.125Z,100051.00
2023-12-19T09:37:49.373Z,100051.00
2023-12-19T09:38:49.415Z,100039.00
2023-12-19T09:39:49.529Z,100040.00
2023-12-19T09:40:49.365Z,100037.00
2023-12-19T09:41:49.437Z,100037.00
2023-12-19T09:42:49.927Z,100036.00
2023-12-19T09:43:49.444Z,100040.00
2023-12-19T09:44:49.477Z,100034.00
2023-12-19T09:45:49.447Z,100030.00
2023-12-19T09:46:49.400Z,100033.00
2023-12-19T09:47:49.504Z,100043.00
2023-12-19T09:48:49.550Z,100058.00
2023-12-19T09:50:49.413Z,100052.00
2023-12-19T09:51:49.558Z,100046.00
2023-12-19T09:52:49.525Z,100045.00
2023-12-19T09:53:49.418Z,100037.00
2023-12-19T09:54:49.492Z,100029.00
2023-12-19T09:56:49.470Z,100019.00
2023-12-19T09:57:49.528Z,100017.00
2023-12-19T09:58:49.462Z,100016.00
2023-12-19T09:59:54.648Z,100011.00
2023-12-19T10:01:49.622Z,100008.00
2023-12-19T10:02:49.509Z,100009.00
2023-12-19T10:03:49.699Z,100014.00
2023-12-19T10:04:49.804Z,100015.00
2023-12-19T10:05:49.697Z,100012.00
2023-12-19T10:06:52.545Z,100010.00
2023-12-19T10:07:51.368Z,100021.00
2023-12-19T10:08:50.079Z,100023.00
2023-12-19T10:09:49.688Z,100022.00
2023-12-19T10:10:49.637Z,100019.00
2023-12-19T10:11:49.661Z,100021.00
2023-12-19T10:12:56.598Z,100021.00
2023-12-19T10:13:49.775Z,100025.00
2023-12-19T10:14:49.768Z,100026.00
2023-12-19T10:16:27.275Z,100025.00
2023-12-19T10:17:49.832Z,100021.00
2023-12-19T10:18:50.893Z,100021.00
2023-12-19T10:19:49.823Z,100021.00
2023-12-19T10:20:49.811Z,100022.00
2023-12-19T10:21:49.821Z,100020.00
2023-12-19T10:23:49.872Z,100009.00
2023-12-19T10:24:49.909Z,100008.00
2023-12-19T10:25:49.973Z,100001.00
2023-12-19T10:26:49.917Z,100005.00
2023-12-19T10:27:49.969Z,100008.00
2023-12-19T10:28:49.916Z,100009.00
2023-12-19T10:29:50.652Z,100015.00
2023-12-19T10:30:50.022Z,100019.00
2023-12-19T10:31:50.069Z,100012.00
2023-12-19T10:32:50.085Z,100010.00
2023-12-19T10:33:50.040Z,100007.00
2023-12-19T10:34:50.185Z,100009.00
2023-12-19T10:35:50.114Z,100002.00
2023-12-19T10:36:50.100Z,99998.00
2023-12-19T10:37:50.338Z,100004.00
2023-12-19T10:38:50.064Z,100002.00
2023-12-19T10:39:50.122Z,100004.00
2023-12-19T10:40:50.039Z,100001.00
2023-12-19T10:41:50.388Z,100000.00
2023-12-19T10:42:50.112Z,99998.00
2023-12-19T10:43:51.207Z,99995.00
2023-12-19T10:44:50.094Z,99992.00
2023-12-19T10:45:50.925Z,99992.00
2023-12-19T10:46:50.123Z,99994.00
2023-12-19T10:47:50.267Z,99984.00
2023-12-19T10:48:50.268Z,99988.00
2023-12-19T10:49:53.999Z,99983.00
2023-12-19T10:50:50.307Z,99979.00
2023-12-19T10:52:50.259Z,99982.00
2023-12-19T10:53:50.169Z,99980.00
2023-12-19T10:54:50.209Z,99974.00
2023-12-19T10:55:50.163Z,99971.00
2023-12-19T10:56:50.171Z,99967.00
2023-12-19T10:57:50.261Z,99966.00
2023-12-19T10:58:50.239Z,99962.00
2023-12-19T11:00:50.337Z,99956.00
2023-12-19T11:01:50.299Z,99959.00
2023-12-19T11:02:50.325Z,99965.00
2023-12-19T11:03:50.285Z,99963.00
2023-12-19T11:04:50.339Z,99967.00
2023-12-19T11:05:50.330Z,99968.00
2023-12-19T11:06:50.363Z,99967.00
2023-12-19T11:07:50.345Z,99969.00
2023-12-19T11:08:50.263Z,99965.00
2023-12-19T11:09:50.321Z,99961.00
2023-12-19T11:12:50.349Z,99949.00
2023-12-19T11:13:50.324Z,99929.00
2023-12-19T11:14:50.454Z,99936.00
2023-12-19T11:15:50.494Z,99939.00
2023-12-19T11:16:50.371Z,99939.00
2023-12-19T11:17:50.627Z,99941.00
2023-12-19T11:18:50.812Z,99944.00
2023-12-19T11:19:50.392Z,99944.00
2023-12-19T11:20:50.718Z,99943.00
2023-12-19T11:21:50.381Z,99940.00
2023-12-19T11:22:50.889Z,99939.00
2023-12-19T11:23:51.309Z,99935.00
2023-12-19T11:24:50.454Z,99928.00
2023-12-19T11:25:52.110Z,99926.00
2023-12-19T11:26:50.410Z,99926.00
2023-12-19T11:27:50.400Z,99917.00
2023-12-19T11:28:50.447Z,99913.00
2023-12-19T11:29:50.405Z,99914.00
2023-12-19T11:30:50.501Z,99901.00
2023-12-19T11:31:50.480Z,99897.00
2023-12-19T11:32:50.536Z,99899.00
2023-12-19T11:33:50.578Z,99891.00
2023-12-19T11:34:50.506Z,99889.00
2023-12-19T11:35:50.460Z,99882.00
2023-12-19T11:36:50.489Z,99879.00
2023-12-19T11:37:50.500Z,99882.00
2023-12-19T11:38:50.505Z,99884.00
2023-12-19T11:39:50.533Z,99892.00
2023-12-19T11:40:50.568Z,99889.00
2023-12-19T11:41:50.598Z,99886.00
2023-12-19T11:42:50.641Z,99879.00
2023-12-19T11:43:50.614Z,99880.00
2023-12-19T11:44:50.614Z,99874.00
2023-12-19T11:45:50.752Z,99874.00
2023-12-19T11:46:50.624Z,99873.00
2023-12-19T11:47:51.312Z,99877.00
2023-12-19T11:48:50.907Z,99880.00
2023-12-19T11:49:50.766Z,99881.00
2023-12-19T11:50:50.666Z,99885.00
2023-12-19T11:51:50.721Z,99880.00